Time;durP1;ratioP1;P1;durP2;ratioP2;P2;SDS_P1;SDS_P2;PMS_P1;PMS_P2;Temp;Humidity;BMP_temperature;BMP_pressure;BME280_temperature;BME280_humidity;BME280_pressure;Samples;Min_cycle;Max_cycle;Signal;HPM_P1;HPM_P2
2022/09/09 00:00:38;;;;;;;13.63;8.10;;;18.50;99.90;;;18.70;86.48;100540.03;5114887;28;20043;-67
2022/09/09 00:03:13;;;;;;;13.82;9.02;;;18.50;99.90;;;18.72;86.79;100552.44;5114772;28;20071;-67
2022/09/09 00:05:50;;;;;;;13.93;7.97;;;18.40;99.90;;;18.67;86.88;100534.81;5115149;28;20098;-67
2022/09/09 00:08:23;;;;;;;10.07;7.97;;;18.50;99.90;;;18.81;86.71;100545.81;5114769;27;20042;-67
2022/09/09 00:10:59;;;;;;;13.95;7.80;;;18.50;99.90;;;18.91;86.40;100550.69;5114644;28;20044;-67
2022/09/09 00:13:35;;;;;;;12.20;7.72;;;18.50;99.90;;;18.99;85.94;100552.19;5114784;28;20119;-67
2022/09/09 00:16:13;;;;;;;12.30;7.65;;;18.60;99.90;;;19.08;85.75;100554.44;5114883;28;20040;-67
2022/09/09 00:18:55;;;;;;;12.32;8.25;;;18.70;99.90;;;19.13;85.03;100549.75;5114716;28;20050;-67
2022/09/09 00:21:33;;;;;;;11.45;7.57;;;18.80;99.90;;;19.23;84.62;100551.97;5114428;28;20035;-67
2022/09/09 00:24:10;;;;;;;15.00;8.27;;;18.80;99.90;;;19.31;84.17;100549.81;5114535;27;20058;-67
2022/09/09 00:26:47;;;;;;;12.07;7.72;;;18.90;99.90;;;19.32;84.02;100551.56;5114393;28;20073;-67
2022/09/09 00:29:26;;;;;;;11.82;7.55;;;18.90;99.90;;;19.14;84.13;100527.38;5114558;28;20051;-67
2022/09/09 00:32:06;;;;;;;10.15;8.05;;;18.90;99.90;;;19.29;84.34;100546.31;5114480;28;20181;-67
2022/09/09 00:34:34;;;;;;;10.95;8.43;;;18.80;99.90;;;19.33;84.12;100553.31;5114317;28;20043;-67
2022/09/09 00:37:04;;;;;;;16.70;7.97;;;18.90;99.90;;;19.37;83.93;100551.38;5114175;28;20046;-67
2022/09/09 00:39:38;;;;;;;9.63;7.83;;;18.90;99.90;;;19.40;83.66;100540.50;5112439;28;20047;-67
2022/09/09 00:42:16;;;;;;;13.70;8.10;;;19.00;99.90;;;19.37;83.70;100543.31;5114253;28;20447;-67
2022/09/09 00:45:01;;;;;;;11.63;7.53;;;19.00;99.90;;;19.30;84.17;100545.38;5112670;28;20493;-67
2022/09/09 00:47:46;;;;;;;11.38;7.28;;;18.90;99.90;;;18.81;84.89;100543.13;5112455;28;20134;-67
2022/09/09 00:50:33;;;;;;;11.85;7.72;;;18.50;99.90;;;18.53;86.80;100519.31;5113005;28;20079;-67
2022/09/09 00:53:18;;;;;;;14.25;7.22;;;18.20;99.90;;;18.39;87.50;100528.84;5113865;28;20394;-67
2022/09/09 00:55:51;;;;;;;12.82;6.72;;;18.00;99.90;;;18.32;88.62;100530.91;5113762;28;20058;-67
2022/09/09 00:58:20;;;;;;;10.32;6.80;;;17.80;99.90;;;18.38;88.66;100527.97;5112613;28;20152;-67
2022/09/09 01:00:54;;;;;;;16.80;7.88;;;17.90;99.90;;;18.43;89.41;100523.31;5112755;28;20056;-67
2022/09/09 01:03:35;;;;;;;14.20;7.43;;;17.90;99.90;;;18.36;89.70;100510.22;5113605;28;20078;-67
2022/09/09 01:06:17;;;;;;;13.60;7.75;;;17.90;99.90;;;18.26;89.22;100503.50;5112410;28;20513;-67
2022/09/09 01:09:17;;;;;;;12.35;7.30;;;17.90;99.90;;;18.16;88.74;100483.38;5113558;28;20051;-67
2022/09/09 01:11:53;;;;;;;;;;;17.90;99.90;;;18.43;89.42;100509.94;5058971;28;20075;-67
2022/09/09 01:14:39;;;;;;;13.30;7.10;;;17.90;99.90;;;18.51;88.55;100510.47;5113728;28;19920;-67
2022/09/09 01:17:15;;;;;;;14.82;6.88;;;18.10;99.90;;;18.51;88.00;100517.63;5112489;28;20523;-67
2022/09/09 01:19:59;;;;;;;;;;;18.20;99.90;;;18.43;88.18;100503.69;5112831;28;20408;-67
2022/09/09 01:22:36;;;;;;;14.02;6.15;;;18.20;99.90;;;18.37;88.17;100486.03;5113618;28;20364;-67
2022/09/09 01:25:30;;;;;;;11.18;6.47;;;18.20;99.90;;;18.62;87.90;100507.34;5113339;28;20043;-67
2022/09/09 01:28:22;;;;;;;16.70;7.00;;;18.20;99.90;;;18.60;87.46;100502.03;5112253;28;20043;-67
2022/09/09 01:30:54;;;;;;;12.27;6.68;;;18.30;99.90;;;18.50;87.83;100494.47;5112120;28;20109;-67
2022/09/09 01:33:26;;;;;;;10.63;5.70;;;18.20;99.90;;;18.58;87.46;100501.22;5111940;28;20059;-67
2022/09/09 01:36:01;;;;;;;12.57;5.90;;;18.20;99.90;;;18.47;87.78;100483.88;5113412;28;20036;-67
2022/09/09 01:38:36;;;;;;;12.18;5.32;;;18.20;99.90;;;18.56;87.50;100492.38;5112144;28;20092;-67
2022/09/09 01:41:06;;;;;;;11.30;4.90;;;18.20;99.90;;;18.49;87.41;100492.72;5112194;28;20096;-67
2022/09/09 01:43:44;;;;;;;8.57;5.28;;;18.20;99.90;;;18.49;87.28;100493.59;5111918;28;20138;-67
2022/09/09 01:46:14;;;;;;;10.02;5.10;;;18.20;99.90;;;18.22;87.34;100478.66;5111587;28;20454;-67
2022/09/09 01:48:44;;;;;;;10.32;5.30;;;18.10;99.90;;;18.32;87.36;100496.09;5112037;28;20052;-67
2022/09/09 01:51:12;;;;;;;9.73;4.85;;;18.00;99.90;;;18.17;87.53;100472.66;5115068;28;20170;-67
2022/09/09 01:53:43;;;;;;;8.50;4.57;;;18.00;99.90;;;18.16;87.68;100480.72;5118708;28;20051;-67
2022/09/09 01:56:24;;;;;;;7.18;4.10;;;17.90;99.90;;;18.22;87.70;100478.66;5118727;28;20047;-67
2022/09/09 01:59:02;;;;;;;;;;;17.90;99.90;;;18.27;87.13;100487.41;5119094;28;20074;-67
2022/09/09 02:01:45;;;;;;;9.70;4.15;;;18.00;99.90;;;18.18;86.95;100485.06;5118744;28;20270;-67
2022/09/09 02:04:33;;;;;;;9.38;4.22;;;17.90;99.90;;;18.21;86.94;100478.72;5118715;28;20077;-67
2022/09/09 02:07:03;;;;;;;11.80;4.88;;;17.90;99.90;;;18.10;87.04;100473.81;5118790;28;20114;-67
2022/09/09 02:09:32;;;;;;;10.02;4.10;;;17.90;99.90;;;18.11;87.17;100467.53;5118623;28;20050;-67
2022/09/09 02:12:08;;;;;;;8.52;4.28;;;17.80;99.90;;;17.96;87.31;100481.56;5119830;28;20396;-67
2022/09/09 02:14:52;;;;;;;10.43;5.13;;;17.70;99.90;;;17.68;87.48;100452.38;5118474;28;20489;-67
2022/09/09 02:17:28;;;;;;;8.88;4.20;;;17.60;99.90;;;17.72;88.14;100462.00;5118226;28;20409;-67
2022/09/09 02:20:07;;;;;;;8.20;4.50;;;17.50;99.90;;;17.43;89.16;100432.84;5118477;28;20130;-67
2022/09/09 02:22:50;;;;;;;9.05;4.80;;;17.40;99.90;;;17.23;90.55;100419.34;5118388;28;20127;-67
2022/09/09 02:25:25;;;;;;;7.03;4.43;;;17.30;99.90;;;17.48;90.93;100432.66;5118337;28;20060;-67
2022/09/09 02:27:59;;;;;;;11.00;5.45;;;17.30;99.90;;;17.41;91.59;100447.19;5118480;28;20047;-67
2022/09/09 02:30:32;;;;;;;7.75;4.60;;;17.20;99.90;;;17.43;91.92;100453.34;5118485;28;20079;-67
2022/09/09 02:33:06;;;;;;;12.20;4.95;;;17.20;99.90;;;17.39;92.06;100446.38;5118377;28;20047;-67
2022/09/09 02:35:46;;;;;;;9.82;4.68;;;17.10;99.90;;;17.24;92.27;100453.19;5118242;28;20112;-67
2022/09/09 02:38:18;;;;;;;10.95;5.13;;;17.10;99.90;;;17.27;92.55;100453.06;5118236;28;20061;-67
2022/09/09 02:40:58;;;;;;;12.43;4.95;;;17.10;99.90;;;17.30;92.24;100458.31;5118004;28;20047;-67
2022/09/09 02:43:26;;;;;;;10.27;4.53;;;17.10;99.90;;;16.71;92.07;100359.03;5118140;28;20100;-67
2022/09/09 02:46:10;;;;;;;8.02;4.57;;;17.10;99.90;;;17.31;92.36;100456.50;5119716;27;20481;-67
2022/09/09 02:48:49;;;;;;;10.93;5.15;;;17.00;99.90;;;17.34;91.66;100462.63;5118039;28;20463;-67
2022/09/09 02:51:31;;;;;;;10.68;4.68;;;17.10;99.90;;;17.32;91.29;100445.75;5118065;28;20054;-67
2022/09/09 02:54:13;;;;;;;13.20;5.47;;;17.20;99.90;;;17.53;90.79;100454.78;5118219;28;20058;-67
2022/09/09 02:56:48;;;;;;;7.43;4.28;;;17.30;99.90;;;17.52;90.38;100436.97;5117930;28;20043;-67
2022/09/09 02:59:17;;;;;;;9.27;4.25;;;17.30;99.90;;;17.75;89.65;100437.78;5117882;28;20077;-67
2022/09/09 03:01:47;;;;;;;8.40;4.40;;;17.50;99.90;;;17.85;88.49;100440.97;5118083;28;20085;-67
2022/09/09 03:04:16;;;;;;;12.82;4.93;;;17.50;99.90;;;17.76;87.95;100417.28;5114386;28;20054;-67
2022/09/09 03:06:45;;;;;;;9.00;4.23;;;17.60;99.90;;;17.86;87.60;100453.44;5114704;28;20047;-67
2022/09/09 03:09:19;;;;;;;7.47;4.50;;;17.60;99.90;;;17.95;87.17;100435.19;5114669;28;20381;-67
2022/09/09 03:11:49;;;;;;;11.35;4.95;;;17.70;99.90;;;18.06;86.79;100433.88;5114842;28;20392;-67
2022/09/09 03:14:20;;;;;;;12.88;4.75;;;17.70;99.90;;;18.02;86.52;100438.50;5114885;28;20412;-67
2022/09/09 03:16:51;;;;;;;9.63;4.80;;;17.70;99.90;;;18.16;86.24;100424.50;5114566;28;20051;-67
2022/09/09 03:19:20;;;;;;;8.48;4.70;;;17.80;99.90;;;17.93;86.25;100465.59;5114410;28;20075;-67
2022/09/09 03:21:50;;;;;;;8.18;4.82;;;17.80;99.90;;;18.09;86.15;100425.69;5114459;28;20043;-67
2022/09/09 03:24:19;;;;;;;10.75;4.90;;;17.80;99.90;;;18.08;86.26;100430.16;5114558;28;20051;-67
2022/09/09 03:26:47;;;;;;;11.35;5.18;;;17.70;99.90;;;17.97;86.47;100435.13;5115781;28;20043;-67
2022/09/09 03:29:18;;;;;;;12.82;4.63;;;17.70;99.90;;;17.67;86.63;100382.88;5114396;28;20073;-67
2022/09/09 03:31:47;;;;;;;9.15;4.63;;;17.60;99.90;;;17.87;86.57;100436.41;5114338;28;20477;-67
2022/09/09 03:34:16;;;;;;;10.40;4.32;;;17.60;99.90;;;17.89;87.02;100430.09;5114285;28;20488;-67
2022/09/09 03:36:45;;;;;;;13.70;5.70;;;17.60;99.90;;;17.77;86.79;100405.63;5114309;28;20059;-67
2022/09/09 03:39:16;;;;;;;11.25;4.72;;;17.60;99.90;;;17.93;86.73;100422.78;5114312;28;20065;-67
2022/09/09 03:41:47;;;;;;;12.38;5.30;;;17.60;99.90;;;18.02;86.53;100427.78;5114301;28;20064;-67
2022/09/09 03:44:16;;;;;;;12.23;4.65;;;17.70;99.90;;;17.94;86.36;100432.56;5114100;28;20496;-67
2022/09/09 03:46:45;;;;;;;12.25;4.75;;;17.60;99.90;;;18.03;86.21;100421.47;5115283;28;20056;-67
2022/09/09 03:49:16;;;;;;;13.55;4.80;;;17.70;99.90;;;17.82;85.97;100390.25;5113874;28;20097;-67
2022/09/09 03:51:45;;;;;;;9.90;4.63;;;17.70;99.90;;;18.10;85.74;100430.97;5114169;28;20062;-67
2022/09/09 03:54:17;;;;;;;11.38;4.53;;;17.70;99.90;;;18.09;85.66;100417.66;5131117;27;20047;-67
2022/09/09 03:56:45;;;;;;;13.35;4.97;;;17.70;99.90;;;18.02;85.44;100414.41;5113920;28;20407;-67
2022/09/09 03:59:14;;;;;;;11.90;4.78;;;17.80;99.90;;;18.09;85.28;100433.72;5113747;28;20040;-67
2022/09/09 04:01:46;;;;;;;10.88;4.38;;;17.70;99.90;;;17.56;85.80;100353.88;5113303;28;20039;-67
2022/09/09 04:04:16;;;;;;;12.35;4.35;;;17.70;99.90;;;17.99;85.88;100419.88;5113186;28;20393;-67
2022/09/09 04:06:45;;;;;;;10.77;4.97;;;17.70;99.90;;;17.99;85.84;100412.72;5115056;28;20071;-67
2022/09/09 04:09:13;;;;;;;10.90;4.47;;;17.70;99.90;;;17.87;86.17;100418.56;5114702;28;20036;-67
2022/09/09 04:11:43;;;;;;;13.18;4.90;;;17.60;99.90;;;17.47;87.05;100374.75;5113515;28;20412;-67
2022/09/09 04:14:14;;;;;;;11.25;4.95;;;17.40;99.90;;;17.45;88.13;100398.00;5112586;27;20051;-67
2022/09/09 04:16:44;;;;;;;11.73;4.70;;;17.30;99.90;;;17.21;89.29;100389.16;5114361;28;20449;-67
2022/09/09 04:19:14;;;;;;;9.00;5.03;;;17.10;99.90;;;17.34;89.58;100384.19;5113425;28;20066;-67
2022/09/09 04:21:45;;;;;;;11.10;4.50;;;17.10;99.90;;;17.34;89.14;100398.44;5113271;28;20562;-67
2022/09/09 04:24:14;;;;;;;14.52;5.05;;;17.10;99.90;;;17.22;89.68;100408.75;5113412;28;20075;-67
2022/09/09 04:26:42;;;;;;;13.90;5.15;;;17.00;99.90;;;17.02;90.80;100389.00;5113019;28;20043;-67
2022/09/09 04:29:11;;;;;;;13.18;5.43;;;16.80;99.90;;;16.98;91.40;100405.19;5113240;28;20082;-67
2022/09/09 04:31:41;;;;;;;13.57;5.93;;;16.80;99.90;;;16.27;91.67;100274.34;5113151;28;20508;-67
2022/09/09 04:34:11;;;;;;;14.93;5.35;;;16.70;99.90;;;16.98;91.90;100373.13;5113030;28;20071;-67
2022/09/09 04:36:40;;;;;;;12.40;5.80;;;16.80;99.90;;;16.95;92.18;100391.97;5112979;28;20222;-67
2022/09/09 04:39:11;;;;;;;10.85;5.65;;;16.70;99.90;;;16.95;92.39;100381.28;5112781;28;20051;-67
2022/09/09 04:41:39;;;;;;;9.77;5.60;;;16.70;99.90;;;16.91;92.67;100372.50;5112690;28;20043;-67
2022/09/09 04:44:10;;;;;;;12.65;6.18;;;16.70;99.90;;;16.88;92.85;100372.63;5112937;28;20035;-67
2022/09/09 04:46:38;;;;;;;11.10;5.88;;;16.70;99.90;;;16.83;92.97;100377.28;5114003;28;20059;-67
2022/09/09 04:49:07;;;;;;;12.55;5.63;;;16.70;99.90;;;16.87;92.98;100383.38;5112805;28;20063;-67
2022/09/09 04:51:43;;;;;;;12.70;5.57;;;16.60;99.90;;;16.66;93.31;100347.66;5112727;28;20052;-67
2022/09/09 04:54:12;;;;;;;12.38;5.57;;;16.60;99.90;;;16.82;93.47;100375.50;5112833;28;20055;-67
2022/09/09 04:56:44;;;;;;;12.73;6.28;;;16.60;99.90;;;16.93;93.35;100380.47;5112779;28;20047;-67
2022/09/09 04:59:13;;;;;;;15.27;6.40;;;16.70;99.90;;;16.61;93.19;100343.38;5113757;28;20123;-66
2022/09/09 05:01:45;;;;;;;14.77;6.28;;;16.60;99.90;;;16.88;93.67;100361.94;5112543;28;20073;-67
2022/09/09 05:04:15;;;;;;;15.70;5.93;;;16.60;99.90;;;16.67;93.36;100354.72;5112397;28;20516;-67
2022/09/09 05:06:44;;;;;;;16.13;6.85;;;16.60;99.90;;;16.82;93.61;100380.00;5112944;28;20039;-67
2022/09/09 05:09:15;;;;;;;13.88;6.40;;;16.60;99.90;;;16.67;94.01;100367.19;5113685;28;20463;-67
2022/09/09 05:11:45;;;;;;;13.57;6.35;;;16.50;99.90;;;16.73;94.00;100380.34;5112576;28;20431;-67
2022/09/09 05:14:27;;;;;;;14.05;6.18;;;16.50;99.90;;;16.73;94.21;100372.31;5112269;28;20042;-67
2022/09/09 05:16:57;;;;;;;18.88;6.90;;;16.50;99.90;;;16.63;94.64;100374.47;5112442;28;20147;-67
2022/09/09 05:19:26;;;;;;;20.13;7.40;;;16.40;99.90;;;16.54;94.60;100325.88;5112361;28;20101;-67
2022/09/09 05:21:55;;;;;;;17.02;6.57;;;16.50;99.90;;;16.73;94.39;100359.84;5112101;28;20147;-67
2022/09/09 05:24:33;;;;;;;11.88;6.50;;;16.60;99.90;;;16.84;94.21;100362.13;5112203;28;20143;-67
2022/09/09 05:27:02;;;;;;;17.75;7.15;;;16.60;99.90;;;16.72;94.63;100371.47;5111636;28;20048;-67
2022/09/09 05:29:33;;;;;;;15.60;6.40;;;16.50;99.90;;;16.71;94.77;100360.81;5112150;28;20052;-67
2022/09/09 05:32:04;;;;;;;13.55;6.18;;;16.50;99.90;;;16.60;95.38;100361.25;5112160;28;20396;-67
2022/09/09 05:34:33;;;;;;;15.82;6.55;;;16.40;99.90;;;16.70;95.65;100365.31;5111872;28;20039;-67
2022/09/09 05:37:01;;;;;;;18.17;6.40;;;16.40;99.90;;;16.80;95.38;100365.84;5111774;28;20501;-67
2022/09/09 05:39:32;;;;;;;14.00;6.88;;;16.50;99.90;;;16.79;95.31;100378.31;5111674;28;20043;-67
2022/09/09 05:42:02;;;;;;;13.57;5.70;;;16.50;99.90;;;17.00;95.04;100380.16;5113256;28;20035;-67
2022/09/09 05:44:34;;;;;;;20.00;6.60;;;16.70;99.90;;;17.06;94.53;100382.59;5111914;28;20055;-67
2022/09/09 05:47:03;;;;;;;21.27;6.28;;;16.70;99.90;;;17.14;93.43;100393.88;5111429;28;20047;-66
2022/09/09 05:49:31;;;;;;;13.45;6.15;;;16.90;99.90;;;17.03;93.61;100398.75;5111660;28;20134;-67
2022/09/09 05:52:00;;;;;;;15.90;6.68;;;16.80;99.90;;;17.05;93.48;100393.38;5111614;28;20040;-67
2022/09/09 05:54:32;;;;;;;12.60;6.35;;;16.80;99.90;;;17.11;93.54;100391.31;5112949;28;20044;-67
2022/09/09 05:57:01;;;;;;;15.35;6.00;;;16.90;99.90;;;17.13;92.83;100372.53;5111943;28;20058;-66
2022/09/09 05:59:33;;;;;;;17.50;6.38;;;17.00;99.90;;;17.35;92.73;100391.28;5111763;28;20130;-66
2022/09/09 06:02:01;;;;;;;14.20;5.88;;;17.00;99.90;;;17.36;92.60;100391.25;5111768;28;20089;-66
2022/09/09 06:04:35;;;;;;;18.55;6.70;;;17.10;99.90;;;17.39;92.21;100387.56;5111481;28;20047;-67
2022/09/09 06:07:05;;;;;;;17.13;6.15;;;17.10;99.90;;;16.68;92.20;100271.03;5111905;28;20052;-67
2022/09/09 06:09:33;;;;;;;14.27;6.43;;;17.10;99.90;;;17.46;92.12;100389.06;5111512;28;20044;-67
2022/09/09 06:12:04;;;;;;;19.52;7.15;;;17.20;99.90;;;16.94;91.85;100310.94;5111638;28;20139;-67
2022/09/09 06:14:36;;;;;;;13.95;7.28;;;17.20;99.90;;;17.36;91.79;100372.53;5111508;28;20052;-66
2022/09/09 06:17:06;;;;;;;16.73;7.15;;;17.10;99.90;;;17.36;91.75;100382.34;5111353;28;20060;-66
2022/09/09 06:19:34;;;;;;;19.85;7.20;;;17.10;99.90;;;17.40;92.12;100383.97;5113073;28;20047;-67
2022/09/09 06:22:02;;;;;;;17.75;7.22;;;17.20;99.90;;;17.44;91.41;100409.66;5111621;28;20134;-67
2022/09/09 06:24:34;;;;;;;15.68;7.05;;;17.20;99.90;;;17.31;91.88;100390.53;5111597;28;20131;-67
2022/09/09 06:27:07;;;;;;;16.23;7.45;;;17.10;99.90;;;17.47;91.59;100398.81;5111459;28;20143;-67
2022/09/09 06:29:37;;;;;;;12.07;6.65;;;17.20;99.90;;;17.46;91.62;100394.41;5111322;28;20036;-67
2022/09/09 06:32:08;;;;;;;14.32;6.82;;;17.20;99.90;;;17.39;92.09;100419.63;5111585;28;20036;-67
2022/09/09 06:34:36;;;;;;;20.33;8.30;;;17.10;99.90;;;17.38;91.37;100397.38;5111525;28;20035;-67
2022/09/09 06:37:06;;;;;;;15.55;7.05;;;17.10;99.90;;;17.55;91.58;100383.38;5111288;28;20045;-67
2022/09/09 06:39:42;;;;;;;15.98;7.03;;;17.20;99.90;;;17.41;91.54;100396.38;5116157;28;20047;-67
2022/09/09 06:42:12;;;;;;;17.35;8.02;;;17.20;99.90;;;17.42;91.61;100390.13;5115223;28;20044;-67
2022/09/09 06:44:50;;;;;;;17.15;7.05;;;17.20;99.90;;;16.87;91.38;100285.41;5116694;28;20067;-67
2022/09/09 06:47:33;;;;;;;17.02;6.90;;;17.20;99.90;;;17.36;91.97;100399.25;5114981;28;20051;-67
2022/09/09 06:50:02;;;;;;;16.30;7.60;;;17.20;99.90;;;17.35;92.70;100385.94;5114740;28;20058;-67
2022/09/09 06:52:33;;;;;;;15.23;7.50;;;17.10;99.90;;;17.50;92.26;100385.38;5114768;28;20052;-67
2022/09/09 06:55:02;;;;;;;19.98;7.57;;;17.20;99.90;;;17.34;92.04;100379.72;5115208;28;20043;-67
2022/09/09 06:57:33;;;;;;;18.73;7.25;;;17.20;99.90;;;17.40;91.70;100400.00;5115359;28;20039;-67
2022/09/09 07:00:11;;;;;;;18.27;7.88;;;17.20;99.90;;;17.47;91.61;100391.66;5115111;28;20442;-67
2022/09/09 07:02:40;;;;;;;17.63;7.78;;;17.20;99.90;;;17.33;91.20;100383.31;5114845;28;20036;-67
2022/09/09 07:05:10;;;;;;;19.43;7.87;;;17.20;99.90;;;17.32;91.54;100402.97;5114655;28;20039;-67
2022/09/09 07:07:40;;;;;;;;;;;17.10;99.90;;;17.34;91.60;100389.56;5115477;28;20055;-67
2022/09/09 07:10:11;;;;;;;20.48;7.43;;;17.10;99.90;;;17.46;91.75;100394.41;5114849;28;20296;-67
2022/09/09 07:12:42;;;;;;;16.45;6.97;;;17.20;99.90;;;17.49;91.70;100394.31;5114573;28;20132;-67
2022/09/09 07:15:12;;;;;;;20.10;7.60;;;17.20;99.90;;;17.35;91.62;100384.13;5114607;28;20047;-67
2022/09/09 07:17:44;;;;;;;16.45;7.68;;;17.20;99.90;;;17.30;91.89;100367.41;5114208;28;20101;-67
2022/09/09 07:20:17;;;;;;;21.02;8.07;;;17.20;99.90;;;17.24;92.41;100369.44;5115950;28;20126;-67
2022/09/09 07:22:45;;;;;;;14.18;7.88;;;17.10;99.90;;;17.38;91.92;100388.50;5115769;28;20043;-67
2022/09/09 07:25:16;;;;;;;12.50;7.20;;;17.10;99.90;;;17.32;91.67;100384.28;5115645;28;20066;-67
2022/09/09 07:27:46;;;;;;;18.38;7.35;;;17.20;99.90;;;17.28;91.49;100352.38;5114331;28;20539;-66
2022/09/09 07:30:15;;;;;;;22.52;7.63;;;17.30;99.90;;;17.46;91.38;100386.41;5114155;28;20451;-67
2022/09/09 07:32:52;;;;;;;16.95;7.68;;;17.30;99.90;;;17.36;91.52;100367.19;5114731;28;20093;-67
2022/09/09 07:35:21;;;;;;;19.60;8.07;;;17.20;99.90;;;17.41;91.97;100401.72;5114304;28;20071;-67
2022/09/09 07:37:49;;;;;;;20.65;8.10;;;17.10;99.90;;;17.36;91.84;100383.22;5113891;28;20420;-67
2022/09/09 07:40:21;;;;;;;20.13;7.93;;;17.20;99.90;;;17.14;91.83;100355.59;5113890;28;20039;-67
2022/09/09 07:42:51;;;;;;;17.30;7.53;;;17.10;99.90;;;17.37;92.23;100398.31;5114052;28;20396;-67
2022/09/09 07:45:20;;;;;;;19.63;7.88;;;17.10;99.90;;;17.39;92.29;100400.91;5114107;28;20601;-67
2022/09/09 07:47:49;;;;;;;14.70;7.32;;;17.10;99.90;;;17.37;92.31;100400.09;5113667;28;20292;-67
2022/09/09 07:50:18;;;;;;;19.50;8.15;;;17.10;99.90;;;17.49;92.12;100389.84;5113697;28;20051;-67
2022/09/09 07:52:47;;;;;;;21.80;8.15;;;17.20;99.90;;;17.50;91.63;100407.63;5113939;28;20043;-67
2022/09/09 07:55:15;;;;;;;18.65;6.53;;;17.20;99.90;;;17.53;91.23;100393.25;5113582;28;20039;-67
2022/09/09 07:57:44;;;;;;;16.10;7.47;;;17.30;99.90;;;17.29;91.42;100376.34;5115228;28;20381;-67
2022/09/09 08:00:16;;;;;;;18.02;7.15;;;17.20;99.90;;;17.56;91.36;100387.78;5113838;28;20050;-67
2022/09/09 08:02:49;;;;;;;16.02;6.60;;;17.30;99.90;;;17.56;90.93;100394.00;5113597;28;20075;-67
2022/09/09 08:05:18;;;;;;;19.35;7.75;;;17.30;99.90;;;17.67;90.82;100391.75;5113573;28;20114;-67
2022/09/09 08:07:49;;;;;;;15.95;6.60;;;17.40;99.90;;;17.63;90.75;100391.97;5113629;28;20035;-66
2022/09/09 08:10:18;;;;;;;13.48;6.45;;;17.40;99.90;;;17.57;90.30;100381.50;5113714;28;20051;-67
2022/09/09 08:12:48;;;;;;;13.63;5.75;;;17.40;99.90;;;17.70;90.51;100388.97;5113690;28;20049;-67
2022/09/09 08:15:39;;;;;;;15.82;6.35;;;17.40;99.90;;;17.80;90.17;100386.78;5113539;28;20035;-67
2022/09/09 08:18:08;;;;;;;19.73;7.57;;;17.60;99.90;;;17.71;90.02;100400.56;5114514;28;20052;-67
2022/09/09 08:20:38;;;;;;;12.88;5.85;;;17.50;99.90;;;17.77;90.38;100401.16;5113395;28;20047;-67
2022/09/09 08:23:07;;;;;;;15.55;6.60;;;17.50;99.90;;;17.53;91.02;100372.75;5113253;28;20134;-67
2022/09/09 08:25:36;;;;;;;16.75;7.05;;;17.50;99.90;;;17.80;90.54;100402.84;5114575;28;20047;-67
2022/09/09 08:28:04;;;;;;;15.15;5.88;;;17.50;99.90;;;17.54;89.40;100350.41;5113092;28;20497;-66
2022/09/09 08:30:33;;;;;;;14.43;6.07;;;17.60;99.90;;;17.86;89.62;100394.56;5112972;28;20094;-67
2022/09/09 08:33:02;;;;;;;13.00;6.13;;;17.60;99.90;;;17.95;89.40;100405.75;5113269;28;20043;-67
2022/09/09 08:35:32;;;;;;;21.88;6.50;;;17.70;99.90;;;18.03;88.94;100400.94;5112946;28;20821;-66
2022/09/09 08:38:01;;;;;;;15.88;6.32;;;17.80;99.90;;;18.06;88.36;100410.63;5112858;28;20063;-66
2022/09/09 08:40:39;;;;;;;14.55;5.82;;;17.80;99.90;;;18.16;88.62;100409.31;5114124;28;20063;-67
2022/09/09 08:43:08;;;;;;;16.08;5.80;;;17.90;99.90;;;18.06;87.85;100381.19;5112499;28;20056;-67
2022/09/09 08:45:44;;;;;;;14.38;6.53;;;17.90;99.90;;;17.98;87.61;100399.41;5112999;28;20051;-67
2022/09/09 08:48:42;;;;;;;14.32;6.07;;;17.80;99.90;;;17.83;87.98;100375.94;5112681;28;20083;-67
2022/09/09 08:51:12;;;;;;;11.50;5.85;;;17.80;99.90;;;18.00;88.48;100397.53;5112816;28;20050;-66
2022/09/09 08:53:46;;;;;;;10.38;6.07;;;17.70;99.90;;;17.96;87.81;100388.75;5112659;28;20043;-67
2022/09/09 08:56:20;;;;;;;12.88;6.88;;;17.80;99.90;;;18.01;88.11;100385.88;5112887;28;20048;-67
2022/09/09 08:58:57;;;;;;;8.90;5.22;;;17.80;99.90;;;18.18;87.56;100402.09;5112440;28;20044;-67
2022/09/09 09:01:46;;;;;;;18.10;5.95;;;17.90;99.90;;;17.89;87.19;100370.34;5111845;28;20062;-67
2022/09/09 09:04:49;;;;;;;14.52;5.88;;;17.90;99.90;;;18.21;87.17;100411.81;5112590;28;20043;-67
2022/09/09 09:07:33;;;;;;;10.50;5.63;;;17.90;99.90;;;18.09;87.27;100421.22;5112536;28;20130;-67
2022/09/09 09:10:13;;;;;;;13.48;6.28;;;17.90;99.90;;;17.26;87.44;100260.66;5112291;28;20048;-67
2022/09/09 09:13:04;;;;;;;16.33;6.13;;;17.90;99.90;;;18.18;87.47;100419.94;5112458;28;20047;-67
2022/09/09 09:15:38;;;;;;;16.27;5.70;;;17.90;99.90;;;18.18;87.41;100430.66;5112302;28;20061;-67
2022/09/09 09:18:15;;;;;;;14.90;5.70;;;17.90;99.90;;;18.01;87.44;100389.44;5112405;28;20047;-67
2022/09/09 09:20:59;;;;;;;15.90;7.05;;;18.00;99.90;;;18.29;86.96;100405.16;5112145;28;20043;-67
2022/09/09 09:23:43;;;;;;;20.65;6.03;;;18.00;99.90;;;18.34;86.61;100429.94;5112090;28;20043;-67
2022/09/09 09:26:12;;;;;;;12.27;5.82;;;18.10;99.90;;;18.38;87.27;100407.47;5113559;28;20044;-67
2022/09/09 09:28:42;;;;;;;13.63;5.90;;;18.10;99.90;;;18.42;88.96;100422.50;5112191;28;20130;-67
2022/09/09 09:31:18;;;;;;;10.05;5.72;;;18.20;99.90;;;18.30;89.82;100425.66;5111956;28;20052;-67
2022/09/09 09:33:52;;;;;;;12.60;5.95;;;18.10;99.90;;;17.68;90.30;100352.50;5112052;28;20050;-67
2022/09/09 09:36:35;;;;;;;14.05;6.40;;;17.90;99.90;;;18.01;91.54;100400.13;5111995;28;20082;-67
2022/09/09 09:39:06;;;;;;;14.43;6.45;;;17.90;99.90;;;18.09;91.81;100421.22;5112042;28;20044;-67
2022/09/09 09:42:00;;;;;;;14.45;6.45;;;17.90;99.90;;;18.01;92.47;100404.63;5111984;28;20047;-67
2022/09/09 09:44:37;;;;;;;15.68;6.43;;;17.80;99.90;;;17.95;92.87;100431.63;5111567;28;20040;-67
2022/09/09 09:47:15;;;;;;;14.43;6.68;;;17.70;99.90;;;17.78;94.62;100434.13;5111626;28;20071;-67
2022/09/09 09:49:53;;;;;;;10.63;5.82;;;17.60;99.90;;;17.54;96.13;100413.72;5111736;28;20058;-67
2022/09/09 09:52:28;;;;;;;14.45;6.78;;;17.40;99.90;;;17.44;97.65;100417.66;5112062;28;20573;-67
2022/09/09 09:54:59;;;;;;;17.45;6.57;;;17.20;99.90;;;17.12;98.85;100403.75;5111763;28;20059;-67
2022/09/09 09:57:35;;;;;;;12.65;6.78;;;17.10;99.90;;;17.25;99.87;100400.63;5111522;28;20078;-67
2022/09/09 10:00:16;;;;;;;13.95;7.18;;;17.00;99.90;;;17.17;100.00;100408.91;5111328;28;20054;-66
2022/09/09 10:02:53;;;;;;;14.68;6.07;;;17.00;99.90;;;17.11;100.00;100385.13;5111783;28;20474;-67
2022/09/09 10:05:28;;;;;;;15.95;7.00;;;17.10;99.90;;;17.32;100.00;100410.13;5111890;28;20047;-67
2022/09/09 10:08:16;;;;;;;15.20;7.20;;;17.10;99.90;;;17.29;100.00;100413.78;5111668;28;20055;-66
2022/09/09 10:11:00;;;;;;;15.63;7.45;;;17.10;99.90;;;17.07;100.00;100421.75;5111383;28;20051;-67
2022/09/09 10:13:37;;;;;;;17.38;6.75;;;16.90;99.90;;;17.11;100.00;100379.78;5115001;28;20044;-67
2022/09/09 10:16:21;;;;;;;14.48;6.90;;;17.00;99.90;;;17.02;100.00;100383.66;5117106;28;20043;-67
2022/09/09 10:19:00;;;;;;;12.50;6.68;;;17.00;99.90;;;16.98;100.00;100367.78;5116859;28;20051;-67
2022/09/09 10:22:03;;;;;;;13.77;6.95;;;16.90;99.90;;;17.33;100.00;100422.53;5117143;28;20450;-68
2022/09/09 10:25:18;;;;;;;10.93;6.22;;;17.10;99.90;;;17.43;100.00;100422.13;5116896;27;20122;-67
2022/09/09 10:28:22;;;;;;;13.48;7.55;;;17.20;99.90;;;17.46;100.00;100402.44;5116859;28;20139;-67
2022/09/09 10:31:04;;;;;;;16.35;6.53;;;17.20;99.90;;;17.53;100.00;100383.44;5116954;28;20044;-67
2022/09/09 10:33:40;;;;;;;10.43;5.72;;;17.40;99.90;;;17.75;100.00;100407.50;5116871;28;20123;-67
2022/09/09 10:36:17;;;;;;;11.35;7.18;;;17.50;99.90;;;17.86;100.00;100406.13;5115614;28;20134;-67